UMBB

Brest Airport

Brest, Belarus
TAF UMBB 181105Z 1812/1821 13005MPS 6000 SCT020
Issued Valid From Valid To
Oct-18 @ 11:05 UTC
(an hour ago)
Oct-18 @ 12:00 UTC
(8 minutes ago)
Oct-18 @ 21:00 UTC
(in 9 hours)
Oct-18 @ 12:00 to Oct-18 @ 21:00
TAF UMBB 181105Z 1812/1821 13005MPS 6000 SCT020
Wind Visibility Clouds
130° at 10 knots 6,003 meters
  • Scattered at 2,000' AGL
TAF UMBB 181105Z 1812/1821 13005MPS 6000 SCT020
Issued Oct-18 @ 11:05 UTC
(an hour ago)
Valid From Oct-18 @ 12:00 UTC
(8 minutes ago)
Valid To Oct-18 @ 21:00 UTC
(in 9 hours)
Oct-18 @ 12:00 - Oct-18 @ 21:00
Wind Visibility
130° at 10 knots 6,003 meters
Clouds
  • Scattered at 2,000' AGL